createdAt,value
2017-01-09T00:01:06.768Z,98.558
2017-01-09T00:03:58.617Z,98.648
2017-01-09T00:06:53.231Z,98.758
2017-01-09T00:09:46.056Z,99.007
2017-01-09T00:12:37.326Z,98.983
2017-01-09T00:15:31.939Z,98.932
2017-01-09T00:18:23.138Z,98.736
2017-01-09T00:21:17.775Z,98.714
2017-01-09T00:27:01.792Z,99.083
2017-01-09T00:29:56.368Z,98.885
2017-01-09T00:32:49.071Z,98.771
2017-01-09T00:35:40.076Z,98.369
2017-01-09T00:38:32.908Z,98.263
2017-01-09T00:41:27.393Z,98.391
2017-01-09T00:44:18.521Z,98.812
2017-01-09T00:47:13.176Z,98.734
2017-01-09T00:50:06.155Z,98.605
2017-01-09T00:52:58.968Z,98.592
2017-01-09T00:55:51.971Z,98.564
2017-01-09T00:58:44.942Z,98.528
2017-01-09T01:01:37.819Z,98.541
2017-01-09T01:04:29.934Z,98.549
2017-01-09T01:07:21.771Z,98.873
2017-01-09T01:10:14.774Z,98.969
2017-01-09T01:13:09.347Z,98.858
2017-01-09T01:16:00.528Z,99.210
2017-01-09T01:18:55.081Z,99.292
2017-01-09T01:21:47.946Z,99.297
2017-01-09T01:24:41.070Z,99.466
2017-01-09T01:27:32.231Z,98.872
2017-01-09T01:30:25.088Z,99.221
2017-01-09T01:33:18.035Z,99.102
2017-01-09T01:36:12.581Z,99.027
2017-01-09T01:39:05.481Z,99.252
2017-01-09T01:41:58.592Z,99.018
2017-01-09T01:44:51.425Z,99.067
2017-01-09T01:47:42.634Z,99.033
2017-01-09T01:50:35.529Z,99.093
2017-01-09T01:53:28.528Z,98.948
2017-01-09T01:59:14.357Z,99.049
2017-01-09T02:02:09.821Z,99.071
2017-01-09T02:05:00.031Z,98.848
2017-01-09T02:07:54.897Z,98.814
2017-01-09T02:10:47.811Z,99.041
2017-01-09T02:13:40.594Z,98.917
2017-01-09T02:16:31.773Z,99.028
2017-01-09T02:22:19.154Z,98.543
2017-01-09T02:25:12.017Z,98.916
2017-01-09T02:28:04.854Z,98.848
2017-01-09T02:30:57.923Z,98.778
2017-01-09T02:33:51.511Z,98.546
2017-01-09T02:36:41.741Z,98.316
2017-01-09T02:39:37.127Z,98.509
2017-01-09T02:42:27.333Z,98.429
2017-01-09T02:45:21.806Z,98.375
2017-01-09T02:48:13.522Z,98.567
2017-01-09T02:51:05.701Z,98.241
2017-01-09T02:54:00.153Z,98.085
2017-01-09T02:56:51.219Z,98.149
2017-01-09T02:59:45.737Z,97.845
2017-01-09T03:02:38.616Z,97.765
2017-01-09T03:05:29.663Z,97.423
2017-01-09T03:08:24.355Z,97.685
2017-01-09T03:11:18.084Z,97.761
2017-01-09T03:14:10.021Z,98.027
2017-01-09T03:17:02.922Z,98.216
2017-01-09T03:19:55.821Z,98.481
2017-01-09T03:22:47.992Z,98.337
2017-01-09T03:25:39.869Z,98.149
2017-01-09T03:28:34.454Z,98.377
2017-01-09T03:31:25.626Z,98.847
2017-01-09T03:34:19.398Z,98.475
2017-01-09T03:37:13.988Z,98.723
2017-01-09T03:40:06.322Z,98.875
2017-01-09T03:42:57.405Z,98.910
2017-01-09T03:45:51.088Z,98.489
2017-01-09T03:48:43.319Z,98.601
2017-01-09T03:51:36.270Z,98.713
2017-01-09T03:57:21.995Z,98.702
2017-01-09T04:00:14.877Z,99.112
2017-01-09T04:03:07.753Z,99.169
2017-01-09T04:06:02.442Z,99.305
2017-01-09T04:08:53.621Z,99.194
2017-01-09T04:14:41.157Z,99.373
2017-01-09T04:17:34.047Z,98.866
2017-01-09T04:20:25.295Z,99.239
2017-01-09T04:23:18.039Z,99.389
2017-01-09T04:26:12.509Z,99.296
2017-01-09T04:29:04.731Z,99.124
2017-01-09T04:31:58.444Z,99.050
2017-01-09T04:34:52.359Z,98.963
2017-01-09T04:37:44.098Z,98.983
2017-01-09T04:40:36.966Z,99.323
2017-01-09T04:43:29.810Z,99.444
2017-01-09T04:46:21.097Z,99.217
2017-01-09T04:49:15.854Z,99.309
2017-01-09T04:52:08.678Z,99.198
2017-01-09T04:55:01.649Z,98.964
2017-01-09T04:57:54.391Z,99.120
2017-01-09T05:00:47.316Z,99.185
2017-01-09T05:03:40.196Z,99.226
2017-01-09T05:06:34.128Z,98.965
2017-01-09T05:09:26.270Z,99.091
2017-01-09T05:12:19.072Z,98.884
2017-01-09T05:15:12.057Z,99.222
2017-01-09T05:18:03.209Z,98.791
2017-01-09T05:23:51.342Z,99.066
2017-01-09T05:26:42.449Z,99.041
2017-01-09T05:29:35.786Z,98.818
2017-01-09T05:32:30.428Z,98.949
2017-01-09T05:35:23.381Z,98.758
2017-01-09T05:38:16.429Z,98.978
2017-01-09T05:41:07.453Z,98.660
2017-01-09T05:44:02.566Z,98.998
2017-01-09T05:46:55.668Z,99.002
2017-01-09T05:49:48.530Z,98.993
2017-01-09T05:55:32.910Z,99.011
2017-01-09T05:58:27.507Z,98.931
2017-01-09T06:01:19.533Z,98.809
2017-01-09T06:04:12.324Z,98.925
2017-01-09T06:07:05.939Z,99.158
2017-01-09T06:09:57.200Z,98.960
2017-01-09T06:12:52.878Z,98.989
2017-01-09T06:15:43.042Z,98.729
2017-01-09T06:18:38.540Z,98.877
2017-01-09T06:21:28.669Z,98.746
2017-01-09T06:24:21.599Z,98.809
2017-01-09T06:27:14.426Z,98.979
2017-01-09T06:30:08.938Z,98.984
2017-01-09T06:33:01.839Z,99.125
2017-01-09T06:38:47.460Z,98.827
2017-01-09T06:41:40.297Z,98.686
2017-01-09T06:44:34.075Z,98.662
2017-01-09T06:47:24.296Z,98.910
2017-01-09T06:50:17.127Z,99.084
2017-01-09T06:53:10.045Z,98.756
2017-01-09T06:56:02.986Z,98.861
2017-01-09T06:58:58.102Z,98.981
2017-01-09T07:01:52.435Z,99.253
2017-01-09T07:04:44.526Z,98.584
2017-01-09T07:07:37.361Z,98.480
2017-01-09T07:10:30.188Z,98.792
2017-01-09T07:13:23.202Z,98.841
2017-01-09T07:16:15.936Z,99.051
2017-01-09T07:22:00.009Z,99.176
2017-01-09T07:24:54.604Z,99.081
2017-01-09T07:27:45.762Z,99.302
2017-01-09T07:30:40.454Z,99.146
2017-01-09T07:33:33.412Z,99.061
2017-01-09T07:36:26.249Z,99.172
2017-01-09T07:39:17.496Z,99.184
2017-01-09T07:42:11.226Z,99.215
2017-01-09T07:45:04.886Z,99.412
2017-01-09T07:47:56.110Z,99.342
2017-01-09T07:50:49.023Z,99.201
2017-01-09T07:53:41.921Z,99.059
2017-01-09T07:56:34.901Z,99.195
2017-01-09T07:59:29.629Z,99.123
2017-01-09T08:02:22.676Z,98.963
2017-01-09T08:05:15.750Z,98.899
2017-01-09T08:08:06.959Z,98.943
2017-01-09T08:10:59.826Z,98.906
2017-01-09T08:13:52.813Z,98.776
2017-01-09T08:16:47.643Z,98.797
2017-01-09T08:19:40.587Z,98.950
2017-01-09T08:22:33.672Z,98.710
2017-01-09T08:25:25.019Z,98.692
2017-01-09T08:28:18.038Z,98.743
2017-01-09T08:31:12.822Z,98.693
2017-01-09T08:34:04.243Z,98.743
2017-01-09T08:36:58.960Z,98.704
2017-01-09T08:39:52.052Z,98.747
2017-01-09T08:42:43.448Z,98.648
2017-01-09T08:45:38.107Z,98.447
2017-01-09T08:48:29.489Z,98.373
2017-01-09T08:51:22.460Z,98.172
2017-01-09T08:54:15.508Z,98.277
2017-01-09T08:57:08.591Z,98.356
2017-01-09T09:00:02.409Z,98.317
2017-01-09T09:02:54.423Z,98.299
2017-01-09T09:05:47.261Z,97.920
2017-01-09T09:08:41.918Z,97.869
2017-01-09T09:11:36.122Z,97.487
2017-01-09T09:14:26.227Z,97.220
2017-01-09T09:17:21.169Z,97.189
2017-01-09T09:20:12.446Z,97.326
2017-01-09T09:23:07.120Z,97.458
2017-01-09T09:25:59.993Z,97.599
2017-01-09T09:28:51.274Z,97.606
2017-01-09T09:31:44.288Z,97.757
2017-01-09T09:34:40.595Z,97.921
2017-01-09T09:37:30.877Z,97.892
2017-01-09T09:40:25.608Z,97.927
2017-01-09T09:43:17.649Z,97.887
2017-01-09T09:46:11.601Z,97.755
2017-01-09T09:49:04.488Z,97.794
2017-01-09T09:51:57.595Z,97.793
2017-01-09T09:54:50.706Z,97.813
2017-01-09T09:57:42.606Z,97.337
2017-01-09T10:00:34.851Z,97.352
2017-01-09T10:03:27.777Z,97.081
2017-01-09T10:06:22.474Z,96.820
2017-01-09T10:09:13.726Z,97.022
2017-01-09T10:12:07.673Z,97.111
2017-01-09T10:15:01.553Z,97.127
2017-01-09T10:17:54.518Z,97.233
2017-01-09T10:20:45.640Z,97.201
2017-01-09T10:23:40.696Z,97.224
2017-01-09T10:26:31.918Z,97.150
2017-01-09T10:29:25.979Z,97.091
2017-01-09T10:32:17.945Z,97.300
2017-01-09T10:35:10.922Z,97.056
2017-01-09T10:38:05.586Z,97.385
2017-01-09T10:40:58.599Z,97.232
2017-01-09T10:43:49.823Z,97.376
2017-01-09T10:46:43.792Z,97.387
2017-01-09T10:49:35.769Z,97.430
2017-01-09T10:52:30.349Z,97.597
2017-01-09T11:01:09.643Z,97.215
2017-01-09T11:04:02.580Z,97.181
2017-01-09T11:06:53.801Z,97.345
2017-01-09T11:09:48.451Z,96.979
2017-01-09T11:12:39.844Z,96.598
2017-01-09T11:15:34.511Z,96.590
2017-01-09T11:18:27.556Z,96.567
2017-01-09T11:21:20.595Z,96.529
2017-01-09T11:24:12.708Z,96.428
2017-01-09T11:27:04.890Z,96.218
2017-01-09T11:29:57.891Z,96.279
2017-01-09T11:35:45.515Z,96.214
2017-01-09T11:38:36.728Z,96.341
2017-01-09T11:41:29.817Z,96.387
2017-01-09T11:44:23.168Z,96.333
2017-01-09T11:47:18.188Z,96.399
2017-01-09T11:53:04.193Z,96.608
2017-01-09T11:55:57.349Z,96.541
2017-01-09T11:58:49.657Z,96.468
2017-01-09T12:01:43.383Z,96.203
2017-01-09T12:04:37.286Z,96.073
2017-01-09T12:07:27.531Z,96.138
2017-01-09T12:10:20.538Z,96.363
2017-01-09T12:13:15.220Z,96.465
2017-01-09T12:16:08.262Z,96.541
2017-01-09T12:19:01.287Z,96.568
2017-01-09T12:21:54.235Z,96.648
2017-01-09T12:24:47.316Z,96.664
2017-01-09T12:27:40.336Z,96.659
2017-01-09T12:30:31.727Z,96.573
2017-01-09T12:33:24.820Z,96.348
2017-01-09T12:36:17.873Z,96.473
2017-01-09T12:39:10.954Z,96.323
2017-01-09T12:42:04.097Z,96.401
2017-01-09T12:44:58.903Z,96.375
2017-01-09T12:47:52.086Z,96.383
2017-01-09T12:50:45.188Z,96.482
2017-01-09T12:53:38.206Z,96.446
2017-01-09T12:56:31.433Z,96.333
2017-01-09T12:59:24.348Z,96.462
2017-01-09T13:05:11.414Z,96.760
2017-01-09T13:08:03.459Z,96.835
2017-01-09T13:10:56.597Z,96.769
2017-01-09T13:13:47.878Z,97.017
2017-01-09T13:16:42.878Z,96.964
2017-01-09T13:19:36.082Z,96.746
2017-01-09T13:22:29.045Z,96.582
2017-01-09T13:25:22.199Z,96.588
2017-01-09T13:28:13.441Z,96.724
2017-01-09T13:31:08.211Z,96.854
2017-01-09T13:34:00.255Z,96.824
2017-01-09T13:36:53.220Z,96.430
2017-01-09T13:39:47.865Z,96.343
2017-01-09T13:42:39.260Z,96.594
2017-01-09T13:45:34.388Z,96.574
2017-01-09T13:48:27.465Z,96.668
2017-01-09T13:51:19.744Z,96.851
2017-01-09T13:54:11.936Z,96.961
2017-01-09T13:57:05.095Z,96.920
2017-01-09T13:59:58.212Z,96.891
2017-01-09T14:02:51.292Z,97.029
2017-01-09T14:05:46.054Z,96.985
2017-01-09T14:08:39.101Z,97.088
2017-01-09T14:11:30.585Z,96.947
2017-01-09T14:14:25.416Z,97.006
2017-01-09T14:17:16.704Z,97.134
2017-01-09T14:20:09.820Z,97.311
2017-01-09T14:23:04.847Z,97.302
2017-01-09T14:25:56.238Z,97.300
2017-01-09T14:28:49.306Z,97.342
2017-01-09T14:31:42.243Z,97.321
2017-01-09T14:34:36.929Z,97.384
2017-01-09T14:37:29.895Z,97.441
2017-01-09T14:40:21.260Z,97.390
2017-01-09T14:43:15.997Z,97.486
2017-01-09T14:46:08.259Z,97.465
2017-01-09T14:49:00.656Z,97.705
2017-01-09T14:51:53.712Z,97.781
2017-01-09T14:54:48.391Z,97.708
2017-01-09T14:57:41.375Z,97.801
2017-01-09T15:00:34.436Z,97.731
2017-01-09T15:03:27.594Z,97.844
2017-01-09T15:06:18.931Z,97.925
2017-01-09T15:09:11.948Z,97.941
2017-01-09T15:12:06.594Z,98.080
2017-01-09T15:14:58.128Z,98.005
2017-01-09T15:17:53.759Z,97.839
2017-01-09T15:20:44.113Z,97.751
2017-01-09T15:23:37.158Z,97.932
2017-01-09T15:26:30.830Z,97.884
2017-01-09T15:29:24.889Z,97.916
2017-01-09T15:32:16.279Z,98.048
2017-01-09T15:35:11.138Z,98.004
2017-01-09T15:38:02.308Z,98.126
2017-01-09T15:40:57.040Z,98.217
2017-01-09T15:43:48.449Z,98.097
2017-01-09T15:46:41.599Z,98.094
2017-01-09T15:49:34.629Z,98.060
2017-01-09T15:52:27.810Z,98.255
2017-01-09T15:55:21.742Z,98.202
2017-01-09T15:58:16.534Z,98.246
2017-01-09T16:01:08.765Z,98.299
2017-01-09T16:04:01.766Z,98.314
2017-01-09T16:06:53.096Z,98.307
2017-01-09T16:09:45.893Z,98.439
2017-01-09T16:12:41.573Z,98.454
2017-01-09T16:15:34.564Z,98.377
2017-01-09T16:21:19.672Z,98.529
2017-01-09T16:24:10.947Z,98.604
2017-01-09T16:27:03.923Z,98.289
2017-01-09T16:29:58.628Z,98.345
2017-01-09T16:32:49.855Z,98.602
2017-01-09T16:35:42.888Z,98.480
2017-01-09T16:38:36.569Z,98.678
2017-01-09T16:41:30.628Z,98.646
2017-01-09T16:44:23.502Z,98.729
2017-01-09T16:47:14.681Z,98.548
2017-01-09T16:50:07.760Z,98.805
2017-01-09T16:53:00.836Z,98.762
2017-01-09T16:55:55.477Z,98.706
2017-01-09T16:58:48.444Z,98.548
2017-01-09T17:01:41.454Z,98.571
2017-01-09T17:04:35.516Z,98.759
2017-01-09T17:07:27.507Z,98.920
2017-01-09T17:10:18.819Z,98.911
2017-01-09T17:13:12.305Z,98.903
2017-01-09T17:16:05.269Z,98.925
2017-01-09T17:18:58.273Z,98.421
2017-01-09T17:21:51.230Z,98.646
2017-01-09T17:24:44.131Z,98.774
2017-01-09T17:27:38.891Z,98.620
2017-01-09T17:30:30.252Z,98.553
2017-01-09T17:33:23.263Z,98.776
2017-01-09T17:36:16.321Z,98.646
2017-01-09T17:39:11.158Z,98.886
2017-01-09T17:42:04.189Z,98.961
2017-01-09T17:44:57.142Z,98.866
2017-01-09T17:47:50.224Z,98.950
2017-01-09T17:50:41.617Z,99.049
2017-01-09T17:53:34.579Z,98.847
2017-01-09T17:56:29.206Z,98.668
2017-01-09T17:59:20.446Z,98.678
2017-01-09T18:02:13.521Z,98.724
2017-01-09T18:05:06.499Z,98.720
2017-01-09T18:08:01.347Z,98.833
2017-01-09T18:10:52.812Z,98.791
2017-01-09T18:13:47.568Z,98.675
2017-01-09T18:16:40.484Z,98.744
2017-01-09T18:19:31.839Z,98.833
2017-01-09T18:22:26.600Z,98.695
2017-01-09T18:25:17.767Z,98.561
2017-01-09T18:28:10.790Z,98.984
2017-01-09T18:31:05.519Z,99.179
2017-01-09T18:33:59.612Z,99.284
2017-01-09T18:36:51.961Z,99.027
2017-01-09T18:39:44.998Z,99.286
2017-01-09T18:42:36.140Z,99.100
2017-01-09T18:45:29.115Z,99.053
2017-01-09T18:48:22.079Z,98.980
2017-01-09T18:51:15.918Z,99.110
2017-01-09T18:54:09.100Z,98.983
2017-01-09T18:57:01.049Z,99.198
2017-01-09T18:59:54.045Z,99.168
2017-01-09T19:02:47.110Z,99.251
2017-01-09T19:05:41.783Z,99.125
2017-01-09T19:08:33.199Z,98.943
2017-01-09T19:11:27.902Z,99.027
2017-01-09T19:14:21.883Z,98.731
2017-01-09T19:17:13.833Z,98.919
2017-01-09T19:20:05.135Z,98.994
2017-01-09T19:22:58.148Z,98.604
2017-01-09T19:25:52.841Z,98.825
2017-01-09T19:28:45.886Z,98.607
2017-01-09T19:31:37.121Z,98.747
2017-01-09T19:34:32.791Z,98.629
2017-01-09T19:37:24.914Z,98.784
2017-01-09T19:40:17.828Z,98.713
2017-01-09T19:43:11.777Z,98.478
2017-01-09T19:46:03.803Z,98.522
2017-01-09T19:48:56.710Z,98.517
2017-01-09T19:51:49.855Z,98.354
2017-01-09T19:54:41.027Z,98.444
2017-01-09T19:57:35.654Z,98.502
2017-01-09T20:00:26.885Z,98.260
2017-01-09T20:03:22.500Z,98.109
2017-01-09T20:06:12.747Z,98.033
2017-01-09T20:09:05.697Z,97.751
2017-01-09T20:12:00.739Z,97.695
2017-01-09T20:14:52.170Z,97.482
2017-01-09T20:17:46.659Z,97.230
2017-01-09T20:20:37.917Z,96.998
2017-01-09T20:23:30.791Z,97.045
2017-01-09T20:26:24.438Z,96.761
2017-01-09T20:29:18.472Z,96.580
2017-01-09T20:32:11.366Z,96.508
2017-01-09T20:35:02.722Z,96.515
2017-01-09T20:37:57.351Z,96.382
2017-01-09T20:40:49.449Z,96.392
2017-01-09T20:43:41.439Z,96.187
2017-01-09T20:46:36.040Z,96.010
2017-01-09T20:49:29.092Z,95.924
2017-01-09T20:52:22.060Z,95.746
2017-01-09T20:55:13.425Z,95.652
2017-01-09T20:58:06.475Z,95.338
2017-01-09T21:01:01.279Z,95.434
2017-01-09T21:03:54.315Z,95.270
2017-01-09T21:06:45.451Z,95.128
2017-01-09T21:09:40.202Z,95.413
2017-01-09T21:12:34.048Z,94.612
2017-01-09T21:15:26.248Z,94.982
2017-01-09T21:18:17.548Z,95.003
2017-01-09T21:21:10.653Z,94.882
2017-01-09T21:24:05.381Z,94.804
2017-01-09T21:26:56.646Z,94.554
2017-01-09T21:29:52.389Z,94.738
2017-01-09T21:32:42.938Z,95.083
2017-01-09T21:35:37.646Z,95.163
2017-01-09T21:38:28.734Z,95.250
2017-01-09T21:41:21.664Z,95.358
2017-01-09T21:44:16.424Z,94.938
2017-01-09T21:47:07.573Z,95.427
2017-01-09T21:50:02.235Z,95.205
2017-01-09T21:52:54.096Z,95.369
2017-01-09T21:55:46.301Z,94.757
2017-01-09T21:58:39.197Z,94.757
2017-01-09T22:01:32.107Z,95.254
2017-01-09T22:04:26.797Z,94.151
2017-01-09T22:07:17.994Z,94.244
2017-01-09T22:10:10.960Z,93.972
2017-01-09T22:13:05.558Z,94.005
2017-01-09T22:16:00.060Z,94.820
2017-01-09T22:18:51.258Z,94.348
2017-01-09T22:21:44.910Z,94.280
2017-01-09T22:24:37.173Z,94.252
2017-01-09T22:27:29.498Z,93.408
2017-01-09T22:30:22.939Z,94.068
2017-01-09T22:33:17.687Z,93.300
2017-01-09T22:36:10.475Z,93.778
2017-01-09T22:39:02.384Z,93.213
2017-01-09T22:41:56.150Z,93.430
2017-01-09T22:44:49.085Z,92.931
2017-01-09T22:47:41.875Z,92.564
2017-01-09T22:50:33.079Z,92.648
2017-01-09T22:53:27.747Z,92.837
2017-01-09T22:56:18.959Z,92.672
2017-01-09T22:59:11.895Z,92.648
2017-01-09T23:02:04.785Z,92.622
2017-01-09T23:04:57.727Z,91.815
2017-01-09T23:07:50.625Z,91.607
2017-01-09T23:10:44.520Z,91.658
2017-01-09T23:16:29.819Z,92.410
2017-01-09T23:19:22.788Z,92.286
2017-01-09T23:22:17.529Z,91.572
2017-01-09T23:25:10.547Z,91.662
2017-01-09T23:28:03.564Z,91.739
2017-01-09T23:30:54.902Z,91.630
2017-01-09T23:33:47.794Z,91.604
2017-01-09T23:36:42.486Z,91.803
2017-01-09T23:39:33.770Z,91.007
2017-01-09T23:42:28.511Z,91.177
2017-01-09T23:45:19.634Z,92.252
2017-01-09T23:48:12.559Z,91.062
2017-01-09T23:51:07.253Z,90.586
2017-01-09T23:54:00.032Z,90.490
2017-01-09T23:56:51.253Z,90.033
2017-01-09T23:59:46.269Z,90.534
